createdAt,value
2022-12-29T00:11:44.487Z,16.55
2022-12-29T00:14:58.019Z,16.50
2022-12-29T00:17:41.466Z,16.58
2022-12-29T00:20:39.649Z,16.50
2022-12-29T00:27:02.406Z,17.20
2022-12-29T00:29:52.452Z,16.80
2022-12-29T00:32:58.406Z,15.98
2022-12-29T00:36:00.900Z,16.50
2022-12-29T00:39:56.439Z,17.00
2022-12-29T00:43:00.734Z,16.85
2022-12-29T00:49:36.202Z,17.17
2022-12-29T00:53:36.932Z,17.45
2022-12-29T00:56:24.758Z,17.30
2022-12-29T01:06:38.374Z,17.23
2022-12-29T01:10:04.025Z,16.60
2022-12-29T01:12:51.101Z,17.00
2022-12-29T01:16:01.427Z,16.63
2022-12-29T01:18:47.837Z,16.75
2022-12-29T01:21:18.112Z,16.65
2022-12-29T01:23:46.206Z,17.00
2022-12-29T01:26:27.390Z,16.98
2022-12-29T01:29:18.949Z,16.75
2022-12-29T01:32:06.903Z,16.55
2022-12-29T01:37:55.759Z,16.55
2022-12-29T01:40:33.782Z,16.63
2022-12-29T01:43:09.398Z,16.95
2022-12-29T01:45:48.701Z,16.92
2022-12-29T01:48:21.128Z,16.80
2022-12-29T01:51:08.592Z,16.33
2022-12-29T01:54:32.222Z,17.35
2022-12-29T02:00:54.351Z,16.10
2022-12-29T02:07:24.739Z,16.60
2022-12-29T02:10:50.025Z,15.80
2022-12-29T02:13:21.594Z,16.40
2022-12-29T02:16:19.642Z,16.30
2022-12-29T02:19:15.907Z,16.90
2022-12-29T02:22:20.967Z,16.83
2022-12-29T02:25:36.518Z,16.85
2022-12-29T02:28:41.993Z,16.77
2022-12-29T02:32:01.688Z,16.92
2022-12-29T02:35:09.344Z,17.48
2022-12-29T02:40:54.129Z,16.95
2022-12-29T02:43:37.385Z,17.23
2022-12-29T02:46:30.439Z,18.05
2022-12-29T02:49:18.136Z,17.73
2022-12-29T02:52:43.058Z,17.65
2022-12-29T02:55:20.913Z,18.30
2022-12-29T02:58:49.625Z,18.08
2022-12-29T03:02:41.972Z,17.48
2022-12-29T03:06:05.472Z,17.52
2022-12-29T03:09:35.036Z,16.67
2022-12-29T03:13:10.124Z,16.67
2022-12-29T03:16:09.982Z,17.13
2022-12-29T03:19:16.715Z,16.77
2022-12-29T03:22:30.756Z,17.30
2022-12-29T03:25:19.567Z,17.35
2022-12-29T03:31:10.659Z,18.30
2022-12-29T03:33:52.886Z,17.75
2022-12-29T03:36:58.431Z,18.88
2022-12-29T03:39:43.866Z,17.45
2022-12-29T03:42:27.516Z,18.42
2022-12-29T03:45:12.805Z,18.35
2022-12-29T03:47:55.519Z,17.75
2022-12-29T03:51:02.553Z,18.52
2022-12-29T03:54:00.204Z,18.80
2022-12-29T03:56:57.063Z,19.23
2022-12-29T04:02:54.032Z,17.85
2022-12-29T04:10:01.887Z,18.63
2022-12-29T04:12:36.645Z,17.83
2022-12-29T04:15:13.050Z,18.33
2022-12-29T04:17:57.672Z,19.58
2022-12-29T04:20:47.023Z,19.25
2022-12-29T04:23:19.096Z,19.73
2022-12-29T04:26:05.301Z,18.67
2022-12-29T04:28:35.727Z,20.02
2022-12-29T04:31:09.637Z,19.33
2022-12-29T04:33:44.624Z,19.65
2022-12-29T04:36:19.617Z,20.33
2022-12-29T04:39:01.420Z,20.60
2022-12-29T04:41:29.959Z,20.38
2022-12-29T04:44:19.817Z,21.17
2022-12-29T04:46:54.103Z,20.70
2022-12-29T04:49:29.604Z,20.55
2022-12-29T04:52:15.905Z,19.88
2022-12-29T04:54:55.008Z,20.33
2022-12-29T04:57:35.773Z,19.52
2022-12-29T05:00:12.592Z,20.67
2022-12-29T05:02:50.424Z,20.17
2022-12-29T05:05:45.217Z,20.48
2022-12-29T05:08:46.195Z,20.35
2022-12-29T05:11:21.601Z,21.08
2022-12-29T05:13:56.636Z,20.17
2022-12-29T05:17:11.113Z,20.25
2022-12-29T05:19:45.140Z,20.35
2022-12-29T05:22:29.947Z,20.27
2022-12-29T05:25:15.955Z,20.08
2022-12-29T05:28:09.465Z,19.95
2022-12-29T05:31:32.277Z,18.85
2022-12-29T05:37:24.739Z,19.92
2022-12-29T05:40:18.875Z,19.83
2022-12-29T05:43:12.039Z,19.88
2022-12-29T05:46:10.387Z,19.73
2022-12-29T05:49:00.219Z,20.27
2022-12-29T05:51:32.055Z,20.20
2022-12-29T05:54:18.273Z,19.60
2022-12-29T05:56:54.567Z,19.55
2022-12-29T05:59:32.366Z,19.90
2022-12-29T06:03:14.262Z,19.30
2022-12-29T06:06:18.686Z,19.38
2022-12-29T06:13:08.912Z,19.13
2022-12-29T06:15:45.785Z,19.27
2022-12-29T06:18:33.148Z,18.10
2022-12-29T06:21:10.497Z,19.35
2022-12-29T06:24:21.206Z,19.85
2022-12-29T06:28:07.674Z,18.20
2022-12-29T06:31:14.030Z,17.73
2022-12-29T06:34:39.933Z,17.17
2022-12-29T06:37:48.091Z,17.20
2022-12-29T06:41:25.638Z,17.80
2022-12-29T06:48:36.755Z,18.52
2022-12-29T06:52:12.689Z,18.60
2022-12-29T06:54:50.440Z,18.05
2022-12-29T06:57:33.707Z,17.67
2022-12-29T07:00:25.304Z,18.42
2022-12-29T07:03:07.349Z,17.77
2022-12-29T07:05:51.495Z,17.77
2022-12-29T07:08:21.256Z,17.23
2022-12-29T07:10:59.396Z,17.52
2022-12-29T07:13:55.259Z,18.05
2022-12-29T07:16:54.783Z,18.30
2022-12-29T07:19:29.061Z,18.30
2022-12-29T07:22:31.826Z,18.13
2022-12-29T07:28:15.640Z,18.20
2022-12-29T07:31:01.512Z,18.83
2022-12-29T07:33:55.650Z,17.92
2022-12-29T07:36:32.377Z,18.45
2022-12-29T07:39:14.231Z,17.88
2022-12-29T07:41:58.264Z,18.48
2022-12-29T07:44:50.340Z,17.55
2022-12-29T07:48:04.512Z,17.50
2022-12-29T07:50:42.652Z,18.00
2022-12-29T07:53:22.013Z,18.10
2022-12-29T07:55:50.329Z,17.67
2022-12-29T07:58:36.085Z,18.15
2022-12-29T08:01:12.850Z,17.92
2022-12-29T08:04:06.764Z,18.58
2022-12-29T08:06:37.562Z,18.27
2022-12-29T08:09:19.584Z,18.35
2022-12-29T08:11:50.587Z,19.52
2022-12-29T08:14:59.987Z,19.55
2022-12-29T08:17:33.790Z,19.10
2022-12-29T08:20:38.999Z,19.08
2022-12-29T08:24:45.291Z,18.80
2022-12-29T08:31:53.674Z,18.38
2022-12-29T08:35:58.143Z,20.35
2022-12-29T08:39:33.041Z,18.48
2022-12-29T08:56:49.456Z,18.17
2022-12-29T09:02:45.674Z,18.55
2022-12-29T09:05:20.318Z,18.42
2022-12-29T09:11:15.870Z,17.38
2022-12-29T09:26:49.592Z,17.25
2022-12-29T10:04:27.468Z,19.35
2022-12-29T10:07:29.091Z,19.70
2022-12-29T10:10:12.891Z,19.27
2022-12-29T10:13:18.060Z,19.77
2022-12-29T10:16:14.057Z,18.67
2022-12-29T10:19:33.130Z,18.52
2022-12-29T10:22:24.690Z,18.52
2022-12-29T10:25:08.622Z,19.02
2022-12-29T10:27:51.631Z,18.92
2022-12-29T10:30:22.191Z,18.42
2022-12-29T10:33:11.284Z,18.40
2022-12-29T10:35:47.381Z,19.38
2022-12-29T10:38:48.895Z,20.33
2022-12-29T10:41:35.780Z,18.83
2022-12-29T10:44:17.361Z,19.52
2022-12-29T10:47:17.857Z,18.08
2022-12-29T10:50:31.565Z,18.88
2022-12-29T10:53:18.868Z,19.48
2022-12-29T10:56:20.112Z,19.20
2022-12-29T10:59:09.384Z,19.98
2022-12-29T11:05:07.217Z,20.75
2022-12-29T11:07:44.017Z,18.85
2022-12-29T11:10:27.244Z,18.45
2022-12-29T11:13:15.927Z,18.38
2022-12-29T11:16:02.315Z,18.02
2022-12-29T11:18:57.038Z,18.45
2022-12-29T11:21:43.674Z,19.10
2022-12-29T11:24:40.264Z,19.45
2022-12-29T11:27:32.732Z,21.83
2022-12-29T11:30:31.496Z,20.02
2022-12-29T11:33:06.676Z,20.65
2022-12-29T11:36:07.392Z,19.60
2022-12-29T11:38:50.507Z,17.15
2022-12-29T11:41:36.256Z,17.85
2022-12-29T11:44:08.183Z,15.52
2022-12-29T11:47:06.287Z,16.27
2022-12-29T11:49:50.948Z,15.65
2022-12-29T11:52:27.974Z,16.77
2022-12-29T11:55:14.931Z,17.85
2022-12-29T11:57:59.152Z,18.77
2022-12-29T12:00:59.595Z,19.00
2022-12-29T12:03:44.975Z,20.50
2022-12-29T12:06:29.335Z,19.20
2022-12-29T12:09:27.556Z,19.35
2022-12-29T12:12:18.772Z,19.38
2022-12-29T12:15:08.912Z,19.92
2022-12-29T12:17:51.865Z,18.65
2022-12-29T12:20:51.780Z,17.60
2022-12-29T12:23:34.064Z,18.13
2022-12-29T12:26:12.384Z,19.10
2022-12-29T12:29:21.921Z,18.92
2022-12-29T12:32:03.832Z,17.52
2022-12-29T12:34:53.189Z,16.65
2022-12-29T12:38:10.242Z,18.05
2022-12-29T12:41:15.516Z,18.75
2022-12-29T12:44:02.046Z,19.42
2022-12-29T12:47:03.711Z,20.73
2022-12-29T12:53:36.441Z,19.88
2022-12-29T12:56:40.623Z,20.23
2022-12-29T12:59:29.331Z,20.02
2022-12-29T13:02:26.973Z,19.48
2022-12-29T13:05:24.458Z,19.77
2022-12-29T13:08:25.505Z,20.48
2022-12-29T13:11:19.045Z,19.73
2022-12-29T13:14:08.749Z,20.48
2022-12-29T13:16:53.932Z,21.05
2022-12-29T13:19:35.404Z,20.73
2022-12-29T13:22:21.107Z,21.15
2022-12-29T13:25:28.246Z,21.58
2022-12-29T13:28:34.795Z,20.67
2022-12-29T13:31:17.488Z,20.00
2022-12-29T13:34:18.731Z,20.70
2022-12-29T13:36:57.748Z,20.83
2022-12-29T13:39:48.738Z,20.98
2022-12-29T13:42:28.408Z,21.55
2022-12-29T13:45:04.948Z,20.95
2022-12-29T13:47:43.207Z,20.95
2022-12-29T13:50:20.803Z,20.45
2022-12-29T13:53:05.751Z,19.75
2022-12-29T13:55:41.357Z,19.88
2022-12-29T13:58:24.752Z,20.30
2022-12-29T14:01:01.015Z,20.40
2022-12-29T14:03:52.477Z,20.50
2022-12-29T14:06:33.581Z,20.08
2022-12-29T14:09:06.381Z,20.35
2022-12-29T14:11:37.941Z,19.50
2022-12-29T14:14:24.018Z,19.27
2022-12-29T14:16:56.419Z,19.40
2022-12-29T14:19:30.377Z,19.98
2022-12-29T14:22:06.663Z,19.45
2022-12-29T14:24:45.111Z,19.10
2022-12-29T14:27:59.203Z,19.30
2022-12-29T14:31:09.230Z,19.77
2022-12-29T14:34:19.887Z,19.42
2022-12-29T14:37:33.888Z,20.77
2022-12-29T14:40:40.171Z,18.98
2022-12-29T14:43:29.338Z,18.88
2022-12-29T14:46:26.221Z,18.50
2022-12-29T14:49:15.328Z,19.67
2022-12-29T14:51:52.155Z,18.05
2022-12-29T14:54:52.268Z,18.85
2022-12-29T14:57:58.192Z,18.98
2022-12-29T15:00:50.510Z,19.50
2022-12-29T15:03:39.706Z,19.95
2022-12-29T15:06:26.917Z,19.67
2022-12-29T15:09:12.100Z,19.85
2022-12-29T15:12:01.737Z,19.45
2022-12-29T15:14:46.770Z,20.27
2022-12-29T15:17:38.645Z,20.05
2022-12-29T15:20:39.450Z,18.95
2022-12-29T15:23:37.418Z,19.85
2022-12-29T15:26:24.107Z,19.85
2022-12-29T15:29:09.999Z,19.05
2022-12-29T15:31:53.051Z,17.50
2022-12-29T15:34:43.218Z,18.73
2022-12-29T15:37:42.536Z,18.60
2022-12-29T15:41:02.667Z,18.88
2022-12-29T15:43:47.193Z,19.05
2022-12-29T15:46:25.320Z,19.08
2022-12-29T15:48:57.299Z,19.27
2022-12-29T15:51:38.376Z,18.92
2022-12-29T15:54:20.259Z,18.77
2022-12-29T15:56:56.940Z,18.33
2022-12-29T15:59:38.573Z,19.20
2022-12-29T16:02:24.290Z,19.20
2022-12-29T16:08:02.388Z,17.88
2022-12-29T16:10:42.318Z,18.20
2022-12-29T16:13:39.631Z,17.50
2022-12-29T16:16:33.174Z,18.55
2022-12-29T16:19:20.670Z,18.75
2022-12-29T16:22:05.452Z,17.88
2022-12-29T16:24:46.208Z,17.70
2022-12-29T16:27:38.309Z,18.48
2022-12-29T16:30:29.519Z,18.48
2022-12-29T16:33:07.203Z,19.55
2022-12-29T16:35:51.588Z,18.77
2022-12-29T16:38:25.284Z,18.92
2022-12-29T16:40:56.994Z,17.52
2022-12-29T16:43:32.013Z,18.10
2022-12-29T16:46:22.921Z,18.50
2022-12-29T16:49:13.587Z,18.00
2022-12-29T16:51:46.703Z,18.70
2022-12-29T16:54:29.638Z,18.65
2022-12-29T16:57:08.941Z,17.98
2022-12-29T16:59:46.284Z,18.35
2022-12-29T17:02:33.692Z,18.13
2022-12-29T17:05:05.925Z,18.60
2022-12-29T17:07:39.207Z,19.05
2022-12-29T17:10:18.125Z,19.52
2022-12-29T17:12:50.886Z,18.83
2022-12-29T17:15:30.480Z,19.15
2022-12-29T17:18:13.446Z,19.75
2022-12-29T17:21:01.775Z,19.70
2022-12-29T17:23:42.618Z,18.92
2022-12-29T17:26:20.036Z,19.25
2022-12-29T17:29:01.481Z,19.15
2022-12-29T17:31:37.795Z,18.80
2022-12-29T17:34:13.425Z,19.48
2022-12-29T17:36:45.074Z,19.10
2022-12-29T17:39:18.500Z,19.08
2022-12-29T17:41:52.170Z,19.42
2022-12-29T17:44:27.006Z,19.35
2022-12-29T17:46:59.909Z,19.92
2022-12-29T17:49:30.460Z,19.38
2022-12-29T17:52:02.783Z,20.05
2022-12-29T17:54:31.494Z,20.45
2022-12-29T17:57:00.959Z,21.02
2022-12-29T17:59:33.759Z,20.45
2022-12-29T18:02:26.165Z,20.55
2022-12-29T18:05:02.806Z,20.85
2022-12-29T18:07:35.928Z,20.67
2022-12-29T18:10:06.931Z,19.83
2022-12-29T18:12:47.209Z,19.77
2022-12-29T18:15:28.656Z,20.30
2022-12-29T18:18:06.286Z,19.27
2022-12-29T18:20:35.229Z,20.05
2022-12-29T18:23:18.862Z,20.52
2022-12-29T18:25:54.934Z,20.42
2022-12-29T18:28:24.032Z,20.65
2022-12-29T18:30:56.502Z,20.38
2022-12-29T18:33:30.792Z,19.92
2022-12-29T18:36:02.288Z,20.95
2022-12-29T18:38:35.981Z,21.52
2022-12-29T18:41:15.684Z,20.83
2022-12-29T18:43:53.731Z,21.08
2022-12-29T18:46:42.737Z,20.58
2022-12-29T18:49:23.882Z,19.98
2022-12-29T18:52:14.009Z,20.98
2022-12-29T18:54:57.520Z,21.13
2022-12-29T18:57:42.862Z,20.58
2022-12-29T19:00:36.112Z,20.30
2022-12-29T19:03:18.228Z,20.50
2022-12-29T19:06:08.763Z,20.98
2022-12-29T19:08:59.326Z,20.75
2022-12-29T19:11:37.555Z,20.55
2022-12-29T19:14:19.626Z,20.73
2022-12-29T19:16:53.833Z,19.88
2022-12-29T19:19:28.032Z,20.33
2022-12-29T19:22:12.887Z,20.70
2022-12-29T19:24:53.603Z,22.58
2022-12-29T19:27:25.909Z,20.58
2022-12-29T19:30:14.347Z,22.23
2022-12-29T19:32:49.334Z,20.63
2022-12-29T19:35:33.018Z,20.90
2022-12-29T19:38:34.136Z,21.08
2022-12-29T19:41:10.477Z,21.13
2022-12-29T19:44:14.929Z,20.73
2022-12-29T19:47:11.207Z,20.17
2022-12-29T19:49:58.903Z,20.85
2022-12-29T19:52:55.597Z,21.40
2022-12-29T19:55:59.704Z,20.55
2022-12-29T19:58:42.601Z,20.65
2022-12-29T20:01:37.472Z,19.98
2022-12-29T20:07:05.231Z,19.77
2022-12-29T20:09:50.213Z,20.10
2022-12-29T20:12:36.789Z,20.10
2022-12-29T20:15:15.884Z,20.87
2022-12-29T20:20:56.864Z,20.95
2022-12-29T20:23:28.542Z,19.83
2022-12-29T20:26:10.918Z,20.23
2022-12-29T20:28:54.901Z,20.10
2022-12-29T20:34:33.383Z,20.58
2022-12-29T20:37:26.175Z,20.70
2022-12-29T20:40:25.890Z,20.60
2022-12-29T20:46:20.871Z,20.20
2022-12-29T20:49:27.215Z,19.55
2022-12-29T20:52:44.167Z,19.35
2022-12-29T20:55:30.734Z,20.75
2022-12-29T20:58:26.159Z,20.48
2022-12-29T21:01:13.410Z,20.25
2022-12-29T21:03:57.494Z,20.52
2022-12-29T21:06:42.512Z,19.95
2022-12-29T21:09:30.739Z,21.05
2022-12-29T21:12:17.548Z,20.13
2022-12-29T21:14:53.124Z,20.70
2022-12-29T21:17:46.823Z,20.77
2022-12-29T21:20:39.404Z,20.27
2022-12-29T21:23:20.365Z,19.65
2022-12-29T21:26:02.601Z,20.37
2022-12-29T21:28:37.577Z,19.90
2022-12-29T21:31:39.145Z,19.25
2022-12-29T21:34:37.047Z,19.90
2022-12-29T21:37:31.632Z,20.50
2022-12-29T21:40:29.202Z,19.27
2022-12-29T21:43:32.029Z,19.43
2022-12-29T21:46:22.104Z,19.63
2022-12-29T21:49:23.278Z,19.60
2022-12-29T21:52:36.956Z,19.60
2022-12-29T21:55:26.295Z,19.50
2022-12-29T21:58:28.175Z,20.20
2022-12-29T22:01:49.433Z,19.40
2022-12-29T22:15:27.924Z,19.73
2022-12-29T22:18:26.811Z,19.33
2022-12-29T22:21:47.634Z,20.10
2022-12-29T22:37:14.507Z,20.80
2022-12-29T22:40:03.847Z,20.50
2022-12-29T22:45:55.184Z,21.03
2022-12-29T22:49:23.164Z,21.07
2022-12-29T22:52:23.695Z,20.23
2022-12-29T22:55:41.846Z,20.17
2022-12-29T22:59:02.320Z,20.50
2022-12-29T23:02:10.516Z,19.50
2022-12-29T23:05:13.882Z,20.65
2022-12-29T23:08:30.893Z,19.48
2022-12-29T23:12:21.537Z,19.77
2022-12-29T23:14:49.022Z,20.10
2022-12-29T23:24:11.417Z,19.10
2022-12-29T23:27:41.102Z,19.33
2022-12-29T23:30:56.394Z,19.67
2022-12-29T23:34:48.052Z,19.67
2022-12-29T23:37:48.825Z,19.93
2022-12-29T23:40:52.767Z,20.07
2022-12-29T23:44:22.343Z,19.73
2022-12-29T23:48:20.675Z,20.13
2022-12-29T23:54:23.462Z,20.00
2022-12-29T23:58:01.758Z,19.80
